createdAt,value
2017-08-07T00:02:12.941Z,60.30
2017-08-07T00:04:42.262Z,58.10
2017-08-07T00:07:10.357Z,57.80
2017-08-07T00:09:38.444Z,56.30
2017-08-07T00:12:06.652Z,56.20
2017-08-07T00:14:34.700Z,55.50
2017-08-07T00:17:02.769Z,55.30
2017-08-07T00:19:31.108Z,54.20
2017-08-07T00:21:59.212Z,53.40
2017-08-07T00:24:27.269Z,52.20
2017-08-07T00:26:55.394Z,51.60
2017-08-07T00:29:23.468Z,51.40
2017-08-07T00:31:51.501Z,51.20
2017-08-07T00:34:19.654Z,50.90
2017-08-07T00:36:47.724Z,50.70
2017-08-07T00:39:15.766Z,50.60
2017-08-07T00:41:43.914Z,50.40
2017-08-07T00:44:11.946Z,49.80
2017-08-07T00:46:39.999Z,50.30
2017-08-07T00:49:08.165Z,50.00
2017-08-07T00:51:36.288Z,49.90
2017-08-07T00:54:04.326Z,49.90
2017-08-07T00:56:32.512Z,49.90
2017-08-07T00:59:00.592Z,49.70
2017-08-07T01:01:28.653Z,49.80
2017-08-07T01:03:56.848Z,49.60
2017-08-07T01:06:25.017Z,49.50
2017-08-07T01:08:53.109Z,49.40
2017-08-07T01:11:21.267Z,49.70
2017-08-07T01:13:49.310Z,49.60
2017-08-07T01:16:17.414Z,49.60
2017-08-07T01:18:45.595Z,49.70
2017-08-07T01:21:13.777Z,49.80
2017-08-07T01:23:41.830Z,50.20
2017-08-07T01:26:10.055Z,51.30
2017-08-07T01:28:38.138Z,52.50
2017-08-07T01:31:07.154Z,51.00
2017-08-07T01:33:35.353Z,50.20
2017-08-07T01:36:03.402Z,49.90
2017-08-07T01:38:31.485Z,50.30
2017-08-07T01:40:59.618Z,51.00
2017-08-07T01:43:27.690Z,50.90
2017-08-07T01:45:55.789Z,51.00
2017-08-07T01:48:24.111Z,51.30
2017-08-07T01:50:52.206Z,51.50
2017-08-07T01:53:20.293Z,51.60
2017-08-07T01:55:48.495Z,51.90
2017-08-07T01:58:16.595Z,52.20
2017-08-07T02:00:44.839Z,52.00
2017-08-07T02:03:13.050Z,52.30
2017-08-07T02:05:41.124Z,52.80
2017-08-07T02:08:09.182Z,52.90
2017-08-07T02:10:37.308Z,53.00
2017-08-07T02:13:05.414Z,53.40
2017-08-07T02:15:33.484Z,54.00
2017-08-07T02:18:01.715Z,53.80
2017-08-07T02:20:29.786Z,54.40
2017-08-07T02:22:57.971Z,55.40
2017-08-07T02:25:26.200Z,56.00
2017-08-07T02:27:54.227Z,57.50
2017-08-07T02:30:22.240Z,59.70
2017-08-07T02:32:50.458Z,60.60
2017-08-07T02:35:18.501Z,60.70
2017-08-07T02:37:46.548Z,61.90
2017-08-07T02:40:14.754Z,61.60
2017-08-07T02:42:42.826Z,60.40
2017-08-07T02:45:10.908Z,59.80
2017-08-07T02:47:39.054Z,60.60
2017-08-07T02:50:07.143Z,60.50
2017-08-07T02:52:35.228Z,59.90
2017-08-07T02:55:03.399Z,59.70
2017-08-07T02:57:31.511Z,59.30
2017-08-07T02:59:59.511Z,59.40
2017-08-07T03:02:27.720Z,60.70
2017-08-07T03:04:55.826Z,60.20
2017-08-07T03:07:23.864Z,59.70
2017-08-07T03:09:52.054Z,59.70
2017-08-07T03:12:20.109Z,60.80
2017-08-07T03:14:48.156Z,62.30
2017-08-07T03:17:16.331Z,60.20
2017-08-07T03:19:44.405Z,58.70
2017-08-07T03:22:12.448Z,58.50
2017-08-07T03:24:40.764Z,58.40
2017-08-07T03:27:08.766Z,57.60
2017-08-07T03:29:36.808Z,57.50
2017-08-07T03:32:04.985Z,58.00
2017-08-07T03:34:33.070Z,58.40
2017-08-07T03:37:01.139Z,59.60
2017-08-07T03:39:29.357Z,59.00
2017-08-07T03:41:57.497Z,58.10
2017-08-07T03:44:25.558Z,57.40
2017-08-07T03:46:53.725Z,56.40
2017-08-07T03:49:21.812Z,56.70
2017-08-07T03:51:49.872Z,56.20
2017-08-07T03:54:18.292Z,56.10
2017-08-07T03:56:46.301Z,54.90
2017-08-07T03:59:14.333Z,54.40
2017-08-07T04:01:42.565Z,52.20
2017-08-07T04:04:10.704Z,51.70
2017-08-07T04:06:38.766Z,48.10
2017-08-07T04:09:07.004Z,48.00
2017-08-07T04:11:35.099Z,48.10
2017-08-07T04:14:03.208Z,47.80
2017-08-07T04:16:31.429Z,47.80
2017-08-07T04:18:59.501Z,47.30
2017-08-07T04:21:27.556Z,46.90
2017-08-07T04:23:55.735Z,46.50
2017-08-07T04:26:23.917Z,46.40
2017-08-07T04:28:51.946Z,45.90
2017-08-07T04:31:20.080Z,45.50
2017-08-07T04:33:48.120Z,45.50
2017-08-07T04:36:16.188Z,44.90
2017-08-07T04:38:44.437Z,44.90
2017-08-07T04:41:12.482Z,44.60
2017-08-07T04:43:40.532Z,42.90
2017-08-07T04:46:08.665Z,41.40
2017-08-07T04:48:36.745Z,39.40
2017-08-07T04:51:04.961Z,39.30
2017-08-07T04:53:33.101Z,38.50
2017-08-07T04:56:01.160Z,38.90
2017-08-07T04:58:29.171Z,39.20
2017-08-07T05:00:57.387Z,40.10
2017-08-07T05:03:25.444Z,40.20
2017-08-07T05:05:53.528Z,40.40
2017-08-07T05:08:21.720Z,40.00
2017-08-07T05:10:49.742Z,39.60
2017-08-07T05:13:17.811Z,38.20
2017-08-07T05:15:45.994Z,37.70
2017-08-07T05:18:14.050Z,36.80
2017-08-07T05:20:42.095Z,35.20
2017-08-07T05:23:10.264Z,36.20
2017-08-07T05:25:38.352Z,36.60
2017-08-07T05:28:06.554Z,36.60
2017-08-07T05:30:34.705Z,36.90
2017-08-07T05:33:02.854Z,36.70
2017-08-07T05:35:30.934Z,37.70
2017-08-07T05:37:59.089Z,38.10
2017-08-07T05:40:27.148Z,37.30
2017-08-07T05:42:55.164Z,37.30
2017-08-07T05:45:23.374Z,36.40
2017-08-07T05:47:51.454Z,36.30
2017-08-07T05:50:19.523Z,34.60
2017-08-07T05:52:47.679Z,33.90
2017-08-07T05:55:15.720Z,33.00
2017-08-07T05:57:43.758Z,32.70
2017-08-07T06:00:11.941Z,31.70
2017-08-07T06:02:39.973Z,31.50
2017-08-07T06:05:08.080Z,31.80
2017-08-07T06:07:36.304Z,32.20
2017-08-07T06:10:04.322Z,32.90
2017-08-07T06:12:32.384Z,32.30
2017-08-07T06:15:00.607Z,32.90
2017-08-07T06:17:28.630Z,33.20
2017-08-07T06:19:56.700Z,33.20
2017-08-07T06:22:24.890Z,33.20
2017-08-07T06:24:52.968Z,33.70
2017-08-07T06:27:21.056Z,33.50
2017-08-07T06:29:49.384Z,31.80
2017-08-07T06:32:17.427Z,32.40
2017-08-07T06:34:45.510Z,32.20
2017-08-07T06:37:13.710Z,31.60
2017-08-07T06:39:41.988Z,31.00
2017-08-07T06:42:10.010Z,29.90
2017-08-07T06:44:38.185Z,29.60
2017-08-07T06:47:06.345Z,28.70
2017-08-07T06:49:34.440Z,28.40
2017-08-07T06:52:02.664Z,28.00
2017-08-07T06:54:30.853Z,27.80
2017-08-07T06:56:58.940Z,27.00
2017-08-07T06:59:27.132Z,27.20
2017-08-07T07:01:55.180Z,27.20
2017-08-07T07:04:23.257Z,27.80
2017-08-07T07:06:51.412Z,28.30
2017-08-07T07:09:19.424Z,28.00
2017-08-07T07:11:47.448Z,28.60
2017-08-07T07:14:15.590Z,28.20
2017-08-07T07:16:43.645Z,28.80
2017-08-07T07:19:11.714Z,29.00
2017-08-07T07:21:39.935Z,28.90
2017-08-07T07:24:07.994Z,29.00
2017-08-07T07:26:36.064Z,29.30
2017-08-07T07:29:04.210Z,29.80
2017-08-07T07:31:32.408Z,29.10
2017-08-07T07:34:00.417Z,29.30
2017-08-07T07:36:28.662Z,29.10
2017-08-07T07:38:56.695Z,29.50
2017-08-07T07:41:24.789Z,29.10
2017-08-07T07:43:53.011Z,29.40
2017-08-07T07:46:21.128Z,29.50
2017-08-07T07:48:49.236Z,29.30
2017-08-07T07:51:17.426Z,29.20
2017-08-07T07:53:45.465Z,28.30
2017-08-07T07:56:13.517Z,27.90
2017-08-07T07:58:41.656Z,27.50
2017-08-07T08:01:09.742Z,27.10
2017-08-07T08:03:37.796Z,26.80
2017-08-07T08:06:05.980Z,26.10
2017-08-07T08:08:34.058Z,27.70
2017-08-07T08:11:02.138Z,27.60
2017-08-07T08:13:30.303Z,27.60
2017-08-07T08:15:58.400Z,27.00
2017-08-07T08:18:26.406Z,27.20
2017-08-07T08:20:54.576Z,27.20
2017-08-07T08:23:22.613Z,27.20
2017-08-07T08:25:50.641Z,27.70
2017-08-07T08:28:18.804Z,27.70
2017-08-07T08:30:46.912Z,27.30
2017-08-07T08:33:15.079Z,27.50
2017-08-07T08:35:43.270Z,26.60
2017-08-07T08:38:11.298Z,27.20
2017-08-07T08:40:39.406Z,27.10
2017-08-07T08:43:07.548Z,27.20
2017-08-07T08:45:35.590Z,26.90
2017-08-07T08:48:03.669Z,27.00
2017-08-07T08:50:31.887Z,27.00
2017-08-07T08:52:59.889Z,26.60
2017-08-07T08:55:27.977Z,26.70
2017-08-07T08:57:56.232Z,26.20
2017-08-07T09:00:24.230Z,26.20
2017-08-07T09:02:52.261Z,26.00
2017-08-07T09:05:20.501Z,32.10
2017-08-07T09:07:48.529Z,38.50
2017-08-07T09:10:16.612Z,40.30
2017-08-07T09:12:44.844Z,43.00
2017-08-07T09:15:12.901Z,43.90
2017-08-07T09:17:40.943Z,45.90
2017-08-07T09:20:09.145Z,48.10
2017-08-07T09:22:37.202Z,47.40
2017-08-07T09:25:05.331Z,48.80
2017-08-07T09:27:33.481Z,51.90
2017-08-07T09:30:01.531Z,55.10
2017-08-07T09:32:29.594Z,53.50
2017-08-07T09:34:57.973Z,53.50
2017-08-07T09:37:26.030Z,54.10
2017-08-07T09:39:54.140Z,54.80
2017-08-07T09:42:22.308Z,52.40
2017-08-07T09:44:50.383Z,53.20
2017-08-07T09:47:18.476Z,51.70
2017-08-07T09:49:46.637Z,52.40
2017-08-07T09:52:14.736Z,52.10
2017-08-07T09:54:42.771Z,52.20
2017-08-07T09:57:10.988Z,52.40
2017-08-07T09:59:39.058Z,52.20
2017-08-07T10:02:07.144Z,51.50
2017-08-07T10:04:35.357Z,51.40
2017-08-07T10:07:03.380Z,51.50
2017-08-07T10:09:31.454Z,52.30
2017-08-07T10:11:59.600Z,51.70
2017-08-07T10:14:27.625Z,52.00
2017-08-07T10:16:55.682Z,51.50
2017-08-07T10:19:23.823Z,50.00
2017-08-07T10:21:51.905Z,50.00
2017-08-07T10:24:19.959Z,50.30
2017-08-07T10:26:48.145Z,49.50
2017-08-07T10:29:16.192Z,49.10
2017-08-07T10:31:44.278Z,49.30
2017-08-07T10:34:12.405Z,49.10
2017-08-07T10:36:40.552Z,48.70
2017-08-07T10:39:08.577Z,49.50
2017-08-07T10:41:36.733Z,48.50
2017-08-07T10:44:04.761Z,47.60
2017-08-07T10:46:32.802Z,49.20
2017-08-07T10:49:01.036Z,50.20
2017-08-07T10:51:29.130Z,51.40
2017-08-07T10:53:57.157Z,51.80
2017-08-07T10:56:25.336Z,52.90
2017-08-07T10:58:53.358Z,53.10
2017-08-07T11:01:21.388Z,52.80
2017-08-07T11:03:49.587Z,52.40
2017-08-07T11:06:17.686Z,51.80
2017-08-07T11:08:45.700Z,48.90
2017-08-07T11:11:13.892Z,47.30
2017-08-07T11:13:41.970Z,47.50
2017-08-07T11:16:10.038Z,47.40
2017-08-07T11:18:38.962Z,47.80
2017-08-07T11:21:06.998Z,47.90
2017-08-07T11:23:35.063Z,48.80
2017-08-07T11:26:03.220Z,49.00
2017-08-07T11:28:31.273Z,49.70
2017-08-07T11:30:59.297Z,49.50
2017-08-07T11:33:27.454Z,49.10
2017-08-07T11:35:55.524Z,48.80
2017-08-07T11:38:23.713Z,48.90
2017-08-07T11:40:51.888Z,48.10
2017-08-07T11:43:19.999Z,48.70
2017-08-07T11:45:48.094Z,50.10
2017-08-07T11:48:16.443Z,49.30
2017-08-07T11:50:44.513Z,49.90
2017-08-07T11:53:12.634Z,49.70
2017-08-07T11:55:40.786Z,50.00
2017-08-07T11:58:08.835Z,50.20
2017-08-07T12:00:36.940Z,50.60
2017-08-07T12:03:05.158Z,51.00
2017-08-07T12:05:33.214Z,51.10
2017-08-07T12:08:01.286Z,51.10
2017-08-07T12:10:29.415Z,51.00
2017-08-07T12:12:57.418Z,50.70
2017-08-07T12:15:25.556Z,50.10
2017-08-07T12:17:53.733Z,50.80
2017-08-07T12:20:21.848Z,50.00
2017-08-07T12:22:49.873Z,50.60
2017-08-07T12:25:18.054Z,51.50
2017-08-07T12:27:46.094Z,55.30
2017-08-07T12:30:14.157Z,59.30
2017-08-07T12:32:42.321Z,60.10
2017-08-07T12:35:10.373Z,57.70
2017-08-07T12:37:38.448Z,57.10
2017-08-07T12:40:06.749Z,56.40
2017-08-07T12:42:34.812Z,54.30
2017-08-07T12:45:02.906Z,54.10
2017-08-07T12:47:31.105Z,52.10
2017-08-07T12:49:59.178Z,50.90
2017-08-07T12:52:27.212Z,50.60
2017-08-07T12:54:55.400Z,51.10
2017-08-07T12:57:23.480Z,49.10
2017-08-07T12:59:51.588Z,49.80
2017-08-07T13:02:19.769Z,51.50
2017-08-07T13:04:47.859Z,51.60
2017-08-07T13:07:15.909Z,51.40
2017-08-07T13:09:44.075Z,51.30
2017-08-07T13:12:12.110Z,52.10
2017-08-07T13:14:40.159Z,51.70
2017-08-07T13:17:08.343Z,49.90
2017-08-07T13:19:36.430Z,48.70
2017-08-07T13:22:04.507Z,48.50
2017-08-07T13:24:32.874Z,48.30
2017-08-07T13:27:00.903Z,48.10
2017-08-07T13:29:28.939Z,48.10
2017-08-07T13:31:57.103Z,47.80
2017-08-07T13:34:25.152Z,48.70
2017-08-07T13:36:53.196Z,50.10
2017-08-07T13:39:21.418Z,50.30
2017-08-07T13:41:49.642Z,50.40
2017-08-07T13:44:17.656Z,51.40
2017-08-07T13:46:45.796Z,51.60
2017-08-07T13:49:13.844Z,51.50
2017-08-07T13:51:41.882Z,50.90
2017-08-07T13:54:10.066Z,49.10
2017-08-07T13:56:38.121Z,49.10
2017-08-07T13:59:06.150Z,49.60
2017-08-07T14:01:34.339Z,49.40
2017-08-07T14:04:02.397Z,50.10
2017-08-07T14:06:30.393Z,50.00
2017-08-07T14:08:58.625Z,49.70
2017-08-07T14:11:26.681Z,49.00
2017-08-07T14:13:54.696Z,49.70
2017-08-07T14:16:22.879Z,50.40
2017-08-07T14:18:50.942Z,50.90
2017-08-07T14:21:19.036Z,51.40
2017-08-07T14:23:47.224Z,51.20
2017-08-07T14:26:15.294Z,50.40
2017-08-07T14:28:43.442Z,49.90
2017-08-07T14:31:11.676Z,49.90
2017-08-07T14:33:39.748Z,49.30
2017-08-07T14:36:07.952Z,48.90
2017-08-07T14:38:36.128Z,48.60
2017-08-07T14:41:04.153Z,48.80
2017-08-07T14:43:32.374Z,48.60
2017-08-07T14:46:00.537Z,47.90
2017-08-07T14:48:28.594Z,47.80
2017-08-07T14:50:56.676Z,48.70
2017-08-07T14:53:24.844Z,49.00
2017-08-07T14:55:52.945Z,49.30
2017-08-07T14:58:20.969Z,49.30
2017-08-07T15:00:49.122Z,49.30
2017-08-07T15:03:17.178Z,49.10
2017-08-07T15:05:45.182Z,48.80
2017-08-07T15:08:13.381Z,48.90
2017-08-07T15:10:41.400Z,48.90
2017-08-07T15:13:09.473Z,48.70
2017-08-07T15:15:37.626Z,49.00
2017-08-07T15:18:05.711Z,49.10
2017-08-07T15:20:33.805Z,49.10
2017-08-07T15:23:02.013Z,49.10
2017-08-07T15:25:30.069Z,49.20
2017-08-07T15:27:58.136Z,49.40
2017-08-07T15:30:26.276Z,49.40
2017-08-07T15:32:54.308Z,49.60
2017-08-07T15:35:22.442Z,49.60
2017-08-07T15:37:50.631Z,49.80
2017-08-07T15:40:18.686Z,49.60
2017-08-07T15:42:46.778Z,49.80
2017-08-07T15:45:15.110Z,49.50
2017-08-07T15:47:43.134Z,49.40
2017-08-07T15:50:11.213Z,49.40
2017-08-07T15:52:39.364Z,49.50
2017-08-07T15:55:07.468Z,49.20
2017-08-07T15:57:35.496Z,49.00
2017-08-07T16:00:03.808Z,49.00
2017-08-07T16:02:31.862Z,49.00
2017-08-07T16:04:59.910Z,48.90
2017-08-07T16:07:28.065Z,48.90
2017-08-07T16:09:56.140Z,48.70
2017-08-07T16:12:24.211Z,49.00
2017-08-07T16:14:52.441Z,48.40
2017-08-07T16:17:20.488Z,48.20
2017-08-07T16:19:48.552Z,47.80
2017-08-07T16:22:16.777Z,47.50
2017-08-07T16:24:44.894Z,47.20
2017-08-07T16:27:12.990Z,47.20
2017-08-07T16:29:52.472Z,47.10
2017-08-07T16:32:20.557Z,45.00
2017-08-07T16:34:48.666Z,44.80
2017-08-07T16:37:16.849Z,43.20
2017-08-07T16:39:44.984Z,42.90
2017-08-07T16:42:13.090Z,42.50
2017-08-07T16:44:41.258Z,42.40
2017-08-07T16:47:09.540Z,42.20
2017-08-07T16:49:37.659Z,42.30
2017-08-07T16:52:05.851Z,42.20
2017-08-07T16:54:33.985Z,42.30
2017-08-07T16:57:02.056Z,42.20
2017-08-07T16:59:30.234Z,42.20
2017-08-07T17:01:58.298Z,42.10
2017-08-07T17:04:26.357Z,42.30
2017-08-07T17:06:54.549Z,42.40
2017-08-07T17:09:22.710Z,42.60
2017-08-07T17:11:50.792Z,42.60
2017-08-07T17:14:18.943Z,42.70
2017-08-07T17:16:46.992Z,42.70
2017-08-07T17:19:15.072Z,42.90
2017-08-07T17:21:43.266Z,43.00
2017-08-07T17:24:11.394Z,43.00
2017-08-07T17:26:39.447Z,43.00
2017-08-07T17:29:07.662Z,43.20
2017-08-07T17:31:35.702Z,43.20
2017-08-07T17:34:03.807Z,43.40
2017-08-07T17:36:31.966Z,43.40
2017-08-07T17:38:59.999Z,43.60
2017-08-07T17:41:28.070Z,43.80
2017-08-07T17:43:56.249Z,44.10
2017-08-07T17:46:24.332Z,44.10
2017-08-07T17:48:52.524Z,44.10
2017-08-07T17:51:20.739Z,44.20
2017-08-07T17:53:48.777Z,44.00
2017-08-07T17:56:16.852Z,43.90
2017-08-07T17:58:45.148Z,43.90
2017-08-07T18:01:13.230Z,43.90
2017-08-07T18:03:41.355Z,43.90
2017-08-07T18:06:09.564Z,43.90
2017-08-07T18:08:37.646Z,43.90
2017-08-07T18:11:05.726Z,44.00
2017-08-07T18:13:33.894Z,44.10
2017-08-07T18:16:01.972Z,44.20
2017-08-07T18:18:29.980Z,44.30
2017-08-07T18:20:58.189Z,44.40
2017-08-07T18:23:26.299Z,44.50
2017-08-07T18:25:54.378Z,44.50
2017-08-07T18:28:22.605Z,44.40
2017-08-07T18:30:50.674Z,44.40
2017-08-07T18:33:18.773Z,44.00
2017-08-07T18:35:46.955Z,44.30
2017-08-07T18:38:15.053Z,44.50
2017-08-07T18:40:43.103Z,44.20
2017-08-07T18:43:11.310Z,44.10
2017-08-07T18:45:39.352Z,44.20
2017-08-07T18:48:07.493Z,45.60
2017-08-07T18:50:35.816Z,46.60
2017-08-07T18:53:03.938Z,47.40
2017-08-07T18:55:32.046Z,47.50
2017-08-07T18:58:00.231Z,47.20
2017-08-07T19:00:28.332Z,47.50
2017-08-07T19:02:56.352Z,47.60
2017-08-07T19:05:24.569Z,47.70
2017-08-07T19:07:52.680Z,47.60
2017-08-07T19:10:20.754Z,47.50
2017-08-07T19:12:48.915Z,45.60
2017-08-07T19:15:16.970Z,44.90
2017-08-07T19:17:45.015Z,44.70
2017-08-07T19:20:13.194Z,44.70
2017-08-07T19:22:41.267Z,45.20
2017-08-07T19:25:09.294Z,46.00
2017-08-07T19:27:37.419Z,46.60
2017-08-07T19:30:05.476Z,46.80
2017-08-07T19:32:33.562Z,46.50
2017-08-07T19:35:01.725Z,46.50
2017-08-07T19:37:29.845Z,46.50
2017-08-07T19:52:56.172Z,46.60
2017-08-07T19:55:24.230Z,46.70
2017-08-07T19:57:52.308Z,46.90
2017-08-07T20:00:20.470Z,46.50
2017-08-07T20:02:48.593Z,46.70
2017-08-07T20:05:16.671Z,48.20
2017-08-07T20:07:44.868Z,49.50
2017-08-07T20:10:12.935Z,50.20
2017-08-07T20:12:40.994Z,51.00
2017-08-07T20:15:09.202Z,50.40
2017-08-07T20:17:37.252Z,49.50
2017-08-07T20:20:05.429Z,47.70
2017-08-07T20:22:33.641Z,47.10
2017-08-07T20:25:01.726Z,48.10
2017-08-07T20:27:29.784Z,51.20
2017-08-07T20:29:57.929Z,55.00
2017-08-07T20:32:25.994Z,53.80
2017-08-07T20:34:54.122Z,52.80
2017-08-07T20:37:22.319Z,52.60
2017-08-07T20:39:50.365Z,52.50
2017-08-07T20:42:18.450Z,52.10
2017-08-07T20:44:46.619Z,50.30
2017-08-07T20:47:14.787Z,48.00
2017-08-07T20:49:42.817Z,47.40
2017-08-07T20:52:11.005Z,46.80
2017-08-07T20:54:39.208Z,46.30
2017-08-07T20:57:07.277Z,47.30
2017-08-07T20:59:35.476Z,49.00
2017-08-07T21:02:03.554Z,51.20
2017-08-07T21:04:31.645Z,51.40
2017-08-07T21:06:59.825Z,53.00
2017-08-07T21:09:27.889Z,53.70
2017-08-07T21:11:55.979Z,54.50
2017-08-07T21:14:24.133Z,54.70
2017-08-07T21:16:52.153Z,55.10
2017-08-07T21:19:20.190Z,55.20
2017-08-07T21:21:48.355Z,55.30
2017-08-07T21:24:16.396Z,55.40
2017-08-07T21:26:44.496Z,55.70
2017-08-07T21:29:12.637Z,55.70
2017-08-07T21:31:40.709Z,55.70
2017-08-07T21:34:08.758Z,55.60
2017-08-07T21:36:36.958Z,55.30
2017-08-07T21:39:05.120Z,55.00
2017-08-07T21:41:33.193Z,55.30
2017-08-07T21:44:01.392Z,55.50
2017-08-07T21:46:29.465Z,55.60
2017-08-07T21:48:57.564Z,55.90
2017-08-07T21:51:25.809Z,55.80
2017-08-07T21:53:53.869Z,55.60
2017-08-07T21:56:22.094Z,55.60
2017-08-07T21:58:50.343Z,55.50
2017-08-07T22:01:18.392Z,55.30
2017-08-07T22:03:46.461Z,54.90
2017-08-07T22:06:14.650Z,54.60
2017-08-07T22:08:42.696Z,53.80
2017-08-07T22:11:10.790Z,54.00
2017-08-07T22:13:38.961Z,54.30
2017-08-07T22:16:07.021Z,54.20
2017-08-07T22:18:35.034Z,53.80
2017-08-07T22:21:03.245Z,53.60
2017-08-07T22:23:31.300Z,53.60
2017-08-07T22:25:59.398Z,53.50
2017-08-07T22:28:27.593Z,53.10
2017-08-07T22:30:55.660Z,52.30
2017-08-07T22:33:23.757Z,51.90
2017-08-07T22:35:51.950Z,51.90
2017-08-07T22:38:20.048Z,52.10
2017-08-07T22:40:48.089Z,52.70
2017-08-07T22:43:16.214Z,52.70
2017-08-07T22:45:44.236Z,52.50
2017-08-07T22:48:12.310Z,52.40
2017-08-07T22:50:40.548Z,52.40
2017-08-07T22:53:08.652Z,52.80
2017-08-07T22:55:36.714Z,52.40
2017-08-07T22:58:04.994Z,53.80
2017-08-07T23:00:33.073Z,54.10
2017-08-07T23:03:01.162Z,53.10
2017-08-07T23:05:29.380Z,52.10
2017-08-07T23:07:57.457Z,51.00
2017-08-07T23:10:25.486Z,50.80
2017-08-07T23:12:53.670Z,51.30
2017-08-07T23:15:21.690Z,52.20
2017-08-07T23:17:49.754Z,52.90
2017-08-07T23:20:17.912Z,52.60
2017-08-07T23:22:46.006Z,52.30
2017-08-07T23:25:14.050Z,51.30
2017-08-07T23:27:42.258Z,51.10
2017-08-07T23:30:10.380Z,51.90
2017-08-07T23:32:38.381Z,50.80
2017-08-07T23:35:06.567Z,48.60
2017-08-07T23:37:34.610Z,48.10
2017-08-07T23:40:02.678Z,47.50
2017-08-07T23:42:30.835Z,47.60
2017-08-07T23:44:58.857Z,47.00
2017-08-07T23:47:26.928Z,47.00
2017-08-07T23:49:55.121Z,47.90
2017-08-07T23:52:23.211Z,47.20
2017-08-07T23:54:51.214Z,47.00
2017-08-07T23:57:19.362Z,46.90
2017-08-07T23:59:47.552Z,46.80
